Time;durP1;ratioP1;P1;durP2;ratioP2;P2;SDS_P1;SDS_P2;PMS_P1;PMS_P2;Temp;Humidity;BMP_temperature;BMP_pressure;BME280_temperature;BME280_humidity;BME280_pressure;Samples;Min_cycle;Max_cycle;Signal;HPM_P1;HPM_P2
2022/08/02 00:01:43;;;;;;;2.75;2.05;;;19.40;99.90;;;;;;4976041;28;20208;-87
2022/08/02 00:04:09;;;;;;;2.30;2.10;;;19.40;99.90;;;;;;4976380;28;20184;-87
2022/08/02 00:06:36;;;;;;;3.60;2.03;;;19.40;99.90;;;;;;4976972;28;20222;-87
2022/08/02 00:09:04;;;;;;;2.95;1.95;;;19.40;99.90;;;;;;4976907;28;20662;-87
2022/08/02 00:11:30;;;;;;;2.97;2.13;;;19.20;99.90;;;;;;4976637;28;20203;-87
2022/08/02 00:13:56;;;;;;;3.63;2.25;;;19.20;99.90;;;;;;4976929;28;20180;-87
2022/08/02 00:16:23;;;;;;;2.97;2.22;;;19.10;99.90;;;;;;4976584;28;20183;-87
2022/08/02 00:18:49;;;;;;;4.13;2.20;;;19.20;99.90;;;;;;4976545;28;20257;-87
2022/08/02 00:21:15;;;;;;;3.03;2.15;;;19.20;99.90;;;;;;4975976;28;20210;-86
2022/08/02 00:23:41;;;;;;;2.45;2.13;;;19.20;99.90;;;;;;4976528;28;20188;-87
2022/08/02 00:26:07;;;;;;;3.40;2.10;;;19.10;99.90;;;;;;4976215;28;20620;-87
2022/08/02 00:28:33;;;;;;;2.42;2.20;;;19.10;99.90;;;;;;4976443;28;20218;-87
2022/08/02 00:30:59;;;;;;;3.00;2.30;;;19.10;99.90;;;;;;4991932;28;20280;-87
2022/08/02 00:33:26;;;;;;;3.90;2.20;;;19.00;99.90;;;;;;4976524;28;20188;-87
2022/08/02 00:35:52;;;;;;;4.55;2.25;;;18.90;99.90;;;;;;4976247;28;20191;-87
2022/08/02 00:38:18;;;;;;;4.70;2.38;;;18.90;99.90;;;;;;4976434;28;20186;-86
2022/08/02 00:40:48;;;;;;;2.60;2.00;;;19.00;99.90;;;;;;4976148;28;20314;-87
2022/08/02 00:43:15;;;;;;;2.33;2.10;;;19.00;99.90;;;;;;4976408;28;20190;-87
2022/08/02 00:45:41;;;;;;;4.45;2.40;;;19.10;99.90;;;;;;4976254;28;20200;-87
2022/08/02 00:48:09;;;;;;;3.63;2.65;;;19.10;99.90;;;;;;4975704;28;20262;-87
2022/08/02 00:50:36;;;;;;;2.45;2.00;;;19.20;99.90;;;;;;4975689;28;20204;-87
2022/08/02 00:53:02;;;;;;;2.45;2.10;;;19.20;99.90;;;;;;4991090;28;20176;-87
2022/08/02 00:55:28;;;;;;;5.95;2.10;;;19.20;99.90;;;;;;4992060;28;20176;-87
2022/08/02 00:57:55;;;;;;;2.67;2.30;;;19.20;99.90;;;;;;4992840;28;20188;-86
2022/08/02 01:00:21;;;;;;;4.88;1.98;;;19.20;99.90;;;;;;4976352;28;20211;-87
2022/08/02 01:02:47;;;;;;;2.40;1.85;;;19.20;99.90;;;;;;4976226;28;20184;-87
2022/08/02 01:05:13;;;;;;;2.88;1.95;;;19.20;99.90;;;;;;4975794;28;20230;-87
2022/08/02 01:07:39;;;;;;;3.00;2.17;;;19.10;99.90;;;;;;4976217;28;20188;-87
2022/08/02 01:10:07;;;;;;;1.98;1.77;;;19.10;99.90;;;;;;4975508;28;20183;-87
2022/08/02 01:12:33;;;;;;;3.35;1.98;;;19.10;99.90;;;;;;4975754;28;20184;-87
2022/08/02 01:15:03;;;;;;;2.22;1.85;;;19.00;99.90;;;;;;4975798;28;20183;-87
2022/08/02 01:17:56;;;;;;;4.63;2.25;;;18.90;99.90;;;;;;4980018;28;20506;-86
2022/08/02 01:21:00;;;;;;;2.72;1.95;;;18.90;99.90;;;;;;4979503;28;20230;-87
2022/08/02 01:23:41;;;;;;;2.75;2.00;;;18.90;99.90;;;;;;4960682;28;20169;-87
2022/08/02 01:26:46;;;;;;;3.60;2.13;;;18.90;99.90;;;;;;4981538;28;20196;-86
2022/08/02 01:29:30;;;;;;;2.83;2.10;;;18.90;99.90;;;;;;4995435;28;20183;-86
2022/08/02 01:32:07;;;;;;;4.85;2.30;;;18.80;99.90;;;;;;4979533;28;20302;-87
2022/08/02 01:34:54;;;;;;;5.53;2.30;;;18.80;99.90;;;;;;4979529;28;20171;-86
2022/08/02 01:37:32;;;;;;;2.00;1.80;;;18.70;99.90;;;;;;4979701;28;20198;-86
2022/08/02 01:40:05;;;;;;;4.03;2.03;;;18.70;99.90;;;;;;4979352;28;20180;-87
2022/08/02 01:42:32;;;;;;;3.20;1.92;;;18.70;99.90;;;;;;4995830;28;20178;-86
2022/08/02 01:45:00;;;;;;;2.60;1.90;;;18.70;99.90;;;;;;4979498;28;20258;-87
2022/08/02 01:47:30;;;;;;;4.68;2.20;;;18.70;99.90;;;;;;4979250;28;20190;-87
2022/08/02 01:49:58;;;;;;;5.05;1.80;;;18.70;99.90;;;;;;4979539;28;20172;-87
2022/08/02 01:52:31;;;;;;;2.58;2.10;;;18.70;99.90;;;;;;4979356;28;20217;-87
2022/08/02 01:55:08;;;;;;;2.85;1.88;;;18.60;99.90;;;;;;4979312;28;20267;-87
2022/08/02 01:57:46;;;;;;;3.85;2.03;;;18.60;99.90;;;;;;4979246;28;20176;-86
2022/08/02 02:00:13;;;;;;;5.00;2.10;;;18.50;99.90;;;;;;4978712;28;20264;-86
2022/08/02 02:02:43;;;;;;;2.55;1.83;;;18.50;99.90;;;;;;4979194;28;20187;-87
2022/08/02 02:05:17;;;;;;;3.33;2.20;;;18.50;99.90;;;;;;4978696;28;20210;-87
2022/08/02 02:07:44;;;;;;;3.27;2.07;;;18.50;99.90;;;;;;4979159;28;20179;-87
2022/08/02 02:10:14;;;;;;;2.60;2.20;;;18.50;99.90;;;;;;4977834;28;20275;-87
2022/08/02 02:12:43;;;;;;;2.77;1.90;;;18.40;99.90;;;;;;4978998;28;20270;-87
2022/08/02 02:15:11;;;;;;;2.90;2.10;;;18.30;99.90;;;;;;4975855;28;20180;-87
2022/08/02 02:17:41;;;;;;;3.50;2.40;;;18.30;99.90;;;;;;4993268;28;20299;-87
2022/08/02 02:20:12;;;;;;;2.65;2.15;;;18.20;99.90;;;;;;4978384;28;20175;-87
2022/08/02 02:22:38;;;;;;;3.50;2.20;;;18.10;99.90;;;;;;4979098;28;20187;-87
2022/08/02 02:25:04;;;;;;;5.82;2.60;;;18.10;99.90;;;;;;4979156;28;20712;-87
2022/08/02 02:27:31;;;;;;;3.77;2.00;;;18.10;99.90;;;;;;4978099;28;20230;-87
2022/08/02 02:29:58;;;;;;;3.40;1.90;;;18.00;99.90;;;;;;4978392;28;20194;-87
2022/08/02 02:32:27;;;;;;;3.27;2.10;;;18.00;99.90;;;;;;4978535;28;20432;-87
2022/08/02 02:34:55;;;;;;;5.70;2.30;;;18.00;99.90;;;;;;4978154;28;20189;-87
2022/08/02 02:37:23;;;;;;;4.33;2.20;;;18.10;99.90;;;;;;4977895;28;20191;-87
2022/08/02 02:39:51;;;;;;;5.07;1.98;;;18.10;99.90;;;;;;4978545;28;20225;-87
2022/08/02 02:42:22;;;;;;;2.23;2.00;;;18.10;99.90;;;;;;4978122;28;20321;-87
2022/08/02 02:44:50;;;;;;;2.70;1.80;;;18.10;99.90;;;;;;4978354;28;20196;-87
2022/08/02 02:47:18;;;;;;;4.33;2.23;;;18.10;99.90;;;;;;4994295;28;20177;-87
2022/08/02 02:49:47;;;;;;;2.60;2.07;;;18.00;99.90;;;;;;4978188;28;20183;-87
2022/08/02 02:52:15;;;;;;;4.43;2.40;;;18.00;99.90;;;;;;4976041;28;20287;-86
2022/08/02 02:54:44;;;;;;;3.33;2.13;;;18.10;99.90;;;;;;4994380;28;20195;-87
2022/08/02 02:57:10;;;;;;;4.93;2.47;;;18.10;99.90;;;;;;4993967;28;20192;-87
2022/08/02 02:59:41;;;;;;;2.80;2.00;;;18.20;99.90;;;;;;4993932;28;20237;-87
2022/08/02 03:02:09;;;;;;;2.90;2.10;;;18.10;99.90;;;;;;4977286;28;20258;-87
2022/08/02 03:04:36;;;;;;;2.40;2.03;;;18.10;99.90;;;;;;4977729;28;20228;-86
2022/08/02 03:07:02;;;;;;;2.50;2.30;;;18.00;99.90;;;;;;4977923;28;20184;-87
2022/08/02 03:09:29;;;;;;;3.27;2.23;;;18.00;99.90;;;;;;4994247;28;20245;-87
2022/08/02 03:11:56;;;;;;;5.07;2.20;;;18.00;99.90;;;;;;4977437;28;20211;-87
2022/08/02 03:14:22;;;;;;;4.03;2.30;;;18.00;99.90;;;;;;4978104;28;20187;-87
2022/08/02 03:16:51;;;;;;;2.80;2.43;;;18.00;99.90;;;;;;4993915;28;20250;-86
2022/08/02 03:19:17;;;;;;;3.77;2.30;;;18.00;99.90;;;;;;4978119;28;20199;-86
2022/08/02 03:21:45;;;;;;;4.73;2.20;;;18.00;99.90;;;;;;4977226;28;20218;-87
2022/08/02 03:24:11;;;;;;;3.27;2.40;;;17.80;99.90;;;;;;4993974;28;20182;-86
2022/08/02 03:26:37;;;;;;;3.37;2.00;;;17.70;99.90;;;;;;4993895;28;20182;-87
2022/08/02 03:29:04;;;;;;;3.13;2.50;;;17.60;99.90;;;;;;4993366;28;20221;-86
2022/08/02 03:31:30;;;;;;;3.73;2.30;;;17.50;99.90;;;;;;4977408;28;20259;-86
2022/08/02 03:33:58;;;;;;;5.17;2.90;;;17.50;99.90;;;;;;4977324;28;20188;-86
2022/08/02 03:36:27;;;;;;;2.73;2.53;;;17.40;99.90;;;;;;4977166;28;20188;-87
2022/08/02 03:38:55;;;;;;;4.30;2.37;;;17.40;99.90;;;;;;4976503;28;20188;-86
2022/08/02 03:41:22;;;;;;;2.90;2.47;;;17.50;99.90;;;;;;4977504;28;20204;-86
2022/08/02 03:43:49;;;;;;;2.37;2.13;;;17.50;99.90;;;;;;4977105;28;20257;-87
2022/08/02 03:46:18;;;;;;;4.03;2.40;;;17.50;99.90;;;;;;4976871;28;20696;-87
2022/08/02 03:48:47;;;;;;;3.70;2.37;;;17.60;99.90;;;;;;4976971;28;20183;-86
2022/08/02 03:51:13;;;;;;;3.03;2.00;;;17.60;99.90;;;;;;4976479;28;20344;-87
2022/08/02 03:53:39;;;;;;;2.70;2.20;;;17.60;99.90;;;;;;4993352;28;20265;-87
2022/08/02 03:56:06;;;;;;;2.53;1.80;;;17.50;99.90;;;;;;4992569;28;20183;-87
2022/08/02 03:58:33;;;;;;;2.80;2.23;;;17.40;99.90;;;;;;4993051;28;20176;-86
2022/08/02 04:00:59;;;;;;;4.77;2.40;;;17.40;99.90;;;;;;4992363;28;20229;-86
2022/08/02 04:03:25;;;;;;;3.10;2.10;;;17.40;99.90;;;;;;4976643;28;20178;-87
2022/08/02 04:05:51;;;;;;;4.43;2.53;;;17.40;99.90;;;;;;4992755;28;20210;-87
2022/08/02 04:08:17;;;;;;;4.00;2.50;;;17.30;99.90;;;;;;4976761;28;20183;-87
2022/08/02 04:13:32;;;;;;;3.03;2.30;;;17.30;99.90;;;;;;5013786;28;20172;-88
2022/08/02 04:16:06;;;;;;;2.43;2.23;;;17.40;99.90;;;;;;4989558;28;20269;-88
2022/08/02 04:18:41;;;;;;;3.50;2.20;;;17.40;99.90;;;;;;4992520;28;20185;-87
2022/08/02 04:21:16;;;;;;;3.73;2.40;;;17.40;99.90;;;;;;4992346;28;20217;-87
2022/08/02 04:23:44;;;;;;;4.63;2.30;;;17.50;99.90;;;;;;4993037;28;20176;-87
2022/08/02 04:26:11;;;;;;;2.77;2.57;;;17.50;99.90;;;;;;5009414;28;20205;-86
2022/08/02 04:28:42;;;;;;;2.43;2.20;;;17.50;99.90;;;;;;5012292;28;20179;-87
2022/08/02 04:31:09;;;;;;;3.27;2.60;;;17.50;99.90;;;;;;5012058;28;20692;-87
2022/08/02 04:33:36;;;;;;;3.43;2.60;;;17.50;99.90;;;;;;5012369;28;20177;-87
2022/08/02 04:36:04;;;;;;;3.23;2.37;;;17.50;99.90;;;;;;5012291;28;20175;-86
2022/08/02 04:38:31;;;;;;;2.70;2.30;;;17.50;99.90;;;;;;5012166;28;20231;-86
2022/08/02 04:40:57;;;;;;;3.97;2.70;;;17.60;99.90;;;;;;5011392;28;20293;-87
2022/08/02 04:43:23;;;;;;;3.63;2.40;;;17.70;99.90;;;;;;5011893;28;20282;-87
2022/08/02 04:45:52;;;;;;;3.57;2.40;;;17.70;99.90;;;;;;5012064;28;20209;-86
2022/08/02 04:48:19;;;;;;;2.40;2.20;;;17.70;99.90;;;;;;5011838;28;20176;-87
2022/08/02 04:50:45;;;;;;;2.17;1.97;;;17.80;99.90;;;;;;5010424;28;20238;-86
2022/08/02 04:53:11;;;;;;;2.47;2.27;;;17.80;99.90;;;;;;4992413;28;20183;-86
2022/08/02 04:55:37;;;;;;;2.50;2.30;;;17.80;99.90;;;;;;4991548;28;20246;-87
2022/08/02 04:58:03;;;;;;;2.60;2.20;;;17.90;99.90;;;;;;4992198;28;20180;-86
2022/08/02 05:00:31;;;;;;;4.50;2.30;;;17.90;99.90;;;;;;4991904;28;20253;-88
2022/08/02 05:02:58;;;;;;;6.57;2.53;;;17.90;99.90;;;;;;4992436;28;20183;-85
2022/08/02 05:05:25;;;;;;;2.58;2.35;;;17.90;99.90;;;;;;4992063;28;20200;-85
2022/08/02 05:07:51;;;;;;;2.30;2.10;;;17.90;99.90;;;;;;4991370;28;20270;-86
2022/08/02 05:10:17;;;;;;;3.10;1.93;;;17.80;99.90;;;;;;4991615;28;20306;-85
2022/08/02 05:12:43;;;;;;;2.73;2.20;;;17.90;99.90;;;;;;4975897;28;20265;-85
2022/08/02 05:15:11;;;;;;;2.43;2.00;;;17.90;99.90;;;;;;4982088;28;20242;-86
2022/08/02 05:17:37;;;;;;;2.80;2.27;;;18.00;99.90;;;;;;5001228;28;20182;-86
2022/08/02 05:20:04;;;;;;;2.73;2.33;;;18.00;99.90;;;;;;5011558;28;20187;-86
2022/08/02 05:22:30;;;;;;;2.60;2.40;;;18.10;99.90;;;;;;5012112;28;20211;-85
2022/08/02 05:24:56;;;;;;;3.93;2.43;;;18.20;99.90;;;;;;5007185;28;20303;-86
2022/08/02 05:27:22;;;;;;;3.10;2.10;;;18.20;99.90;;;;;;4975478;28;20183;-86
2022/08/02 05:29:50;;;;;;;2.80;2.30;;;18.30;99.90;;;;;;4975201;28;20179;-86
2022/08/02 05:32:17;;;;;;;2.30;2.10;;;18.30;99.90;;;;;;4975385;28;20207;-86
2022/08/02 05:34:45;;;;;;;3.07;2.30;;;18.30;99.90;;;;;;4991752;28;20183;-86
2022/08/02 05:37:11;;;;;;;3.13;2.10;;;18.40;99.90;;;;;;4975539;28;20238;-86
2022/08/02 05:39:37;;;;;;;3.47;2.47;;;18.40;99.90;;;;;;4975017;28;20187;-86
2022/08/02 05:42:03;;;;;;;2.73;2.10;;;18.40;99.90;;;;;;4975067;28;20276;-86
2022/08/02 05:44:29;;;;;;;2.42;2.22;;;18.40;99.90;;;;;;4975032;28;20203;-86
2022/08/02 05:46:56;;;;;;;3.10;2.30;;;18.50;99.90;;;;;;4975399;28;20192;-86
2022/08/02 05:49:24;;;;;;;2.20;2.00;;;18.60;99.90;;;;;;5001343;28;20175;-85
2022/08/02 05:52:13;;;;;;;3.00;2.30;;;18.60;99.90;;;;;;5004038;28;20200;-86
2022/08/02 05:55:09;;;;;;;2.37;2.00;;;18.60;99.90;;;;;;4991316;28;20180;-86
2022/08/02 05:58:04;;;;;;;2.92;2.13;;;18.70;99.90;;;;;;4962386;28;20210;-86
2022/08/02 06:00:32;;;;;;;3.20;2.35;;;18.90;99.90;;;;;;4972652;28;20212;-86
2022/08/02 06:03:20;;;;;;;2.65;2.40;;;19.00;99.90;;;;;;4977854;28;20222;-87
2022/08/02 06:05:58;;;;;;;2.47;2.20;;;19.10;99.90;;;;;;4985920;28;20211;-86
2022/08/02 06:08:37;;;;;;;3.03;1.92;;;19.30;99.90;;;;;;5015156;28;20179;-87
2022/08/02 06:11:05;;;;;;;2.30;2.10;;;19.40;99.90;;;;;;5013366;28;20289;-85
2022/08/02 06:13:32;;;;;;;3.65;2.00;;;19.40;99.90;;;;;;5005764;28;20188;-86
2022/08/02 06:16:00;;;;;;;2.55;1.92;;;19.40;99.90;;;;;;4974643;28;20200;-86
2022/08/02 06:18:28;;;;;;;2.28;2.00;;;19.50;99.90;;;;;;4991673;28;20237;-86
2022/08/02 06:21:01;;;;;;;4.65;2.00;;;19.60;99.90;;;;;;4990656;28;20716;-86
2022/08/02 06:23:28;;;;;;;2.20;2.00;;;19.60;99.90;;;;;;4991107;28;20184;-86
2022/08/02 06:25:57;;;;;;;2.33;2.13;;;19.60;99.90;;;;;;5007164;28;20205;-86
2022/08/02 06:28:25;;;;;;;2.35;2.00;;;19.60;99.90;;;;;;4990873;28;20185;-86
2022/08/02 06:30:53;;;;;;;3.55;2.40;;;19.70;99.90;;;;;;5008743;28;20196;-86
2022/08/02 06:33:20;;;;;;;2.33;2.00;;;19.80;99.90;;;;;;4995341;28;20651;-86
2022/08/02 06:35:59;;;;;;;2.38;2.17;;;19.90;99.90;;;;;;4993951;28;20275;-86
2022/08/02 06:38:31;;;;;;;2.30;2.10;;;20.00;99.90;;;;;;4993974;28;20191;-86
2022/08/02 06:41:06;;;;;;;4.90;2.00;;;20.00;99.90;;;;;;4993912;28;20200;-86
2022/08/02 06:44:03;;;;;;;3.28;2.65;;;20.20;99.90;;;;;;4994461;28;20199;-86
2022/08/02 06:46:41;;;;;;;2.83;2.15;;;20.30;99.90;;;;;;4993734;28;20693;-86
2022/08/02 06:49:12;;;;;;;2.30;2.10;;;20.50;99.90;;;;;;4994163;28;20175;-86
2022/08/02 06:51:39;;;;;;;2.00;1.90;;;20.60;99.90;;;;;;5010114;28;20199;-86
2022/08/02 06:54:05;;;;;;;2.20;2.00;;;20.60;99.90;;;;;;4994197;28;20187;-86
2022/08/02 06:56:31;;;;;;;4.25;2.30;;;20.70;99.90;;;;;;5007535;28;20179;-85
2022/08/02 06:58:57;;;;;;;76.88;23.38;;;20.60;99.90;;;;;;4977733;28;20176;-86
2022/08/02 07:01:23;;;;;;;7.93;3.95;;;20.60;99.90;;;;;;4994164;28;20244;-86
2022/08/02 07:03:49;;;;;;;2.42;2.22;;;20.70;99.90;;;;;;4993871;28;20187;-86
2022/08/02 07:06:17;;;;;;;2.25;2.05;;;20.80;99.90;;;;;;4977420;28;20211;-86
2022/08/02 07:08:44;;;;;;;3.95;2.25;;;20.80;99.90;;;;;;4977427;28;20180;-85
2022/08/02 07:11:11;;;;;;;3.83;2.20;;;20.90;99.90;;;;;;4977684;28;20254;-86
2022/08/02 07:13:37;;;;;;;3.97;2.00;;;21.00;99.90;;;;;;4976476;28;20183;-86
2022/08/02 07:16:03;;;;;;;3.25;2.00;;;21.10;99.90;;;;;;4977080;28;20282;-86
2022/08/02 07:18:34;;;;;;;4.38;2.40;;;21.20;99.90;;;;;;4993906;28;20183;-87
2022/08/02 07:21:05;;;;;;;2.75;2.30;;;21.30;99.90;;;;;;4993211;28;20218;-87
2022/08/02 07:23:31;;;;;;;2.85;2.20;;;21.40;99.90;;;;;;4993674;28;20267;-86
2022/08/02 07:25:57;;;;;;;3.15;2.50;;;21.50;99.90;;;;;;4998402;28;20315;-86
2022/08/02 07:28:28;;;;;;;2.97;2.35;;;21.50;99.90;;;;;;4983432;28;20180;-87
2022/08/02 07:30:54;;;;;;;2.70;2.47;;;21.60;99.90;;;;;;4976802;28;20204;-87
2022/08/02 07:33:20;;;;;;;2.53;2.33;;;21.70;99.90;;;;;;4977007;28;20176;-86
2022/08/02 07:35:46;;;;;;;3.65;2.38;;;21.80;99.90;;;;;;4993103;28;20183;-86
2022/08/02 07:38:12;;;;;;;2.53;2.30;;;22.00;99.90;;;;;;4977114;28;20190;-86
2022/08/02 07:40:38;;;;;;;2.22;2.03;;;22.20;99.90;;;;;;4976762;28;20250;-86
2022/08/02 07:43:04;;;;;;;2.40;2.20;;;22.20;99.90;;;;;;4977244;28;20226;-87
2022/08/02 07:45:31;;;;;;;3.20;2.67;;;22.40;99.90;;;;;;4993108;28;20264;-86
2022/08/02 07:47:58;;;;;;;4.60;2.63;;;22.60;99.90;;;;;;4993071;28;20243;-87
2022/08/02 07:50:23;;;;;;;3.15;2.60;;;22.40;99.90;;;;;;4985814;28;20230;-87
2022/08/02 07:52:49;;;;;;;4.00;2.50;;;22.50;99.90;;;;;;4993699;28;20180;-87
2022/08/02 07:55:17;;;;;;;4.53;2.53;;;22.50;99.90;;;;;;4993823;28;20183;-86
2022/08/02 07:57:43;;;;;;;2.50;2.30;;;22.70;99.90;;;;;;4973201;28;20180;-87
2022/08/02 08:00:10;;;;;;;3.20;2.53;;;22.70;99.90;;;;;;4973009;28;20189;-87
2022/08/02 08:02:39;;;;;;;3.42;2.17;;;22.70;99.90;;;;;;4974273;28;20635;-87
2022/08/02 08:05:05;;;;;;;4.03;2.63;;;22.80;99.90;;;;;;4987881;28;20204;-87
2022/08/02 08:07:32;;;;;;;3.80;2.97;;;23.00;99.90;;;;;;4992929;28;20235;-87
2022/08/02 08:09:59;;;;;;;2.85;2.50;;;23.10;99.90;;;;;;4976874;28;20176;-87
2022/08/02 08:12:26;;;;;;;3.90;3.03;;;23.20;99.90;;;;;;5012224;28;20294;-87
2022/08/02 08:14:52;;;;;;;3.95;2.85;;;23.30;99.90;;;;;;5012231;28;20274;-87
2022/08/02 08:17:18;;;;;;;5.85;4.45;;;23.40;99.90;;;;;;5011857;28;20265;-87
2022/08/02 08:19:44;;;;;;;3.60;3.30;;;23.30;99.90;;;;;;5022656;28;20204;-87
2022/08/02 08:22:10;;;;;;;3.33;3.03;;;23.20;99.90;;;;;;4992188;28;20255;-87
2022/08/02 08:24:37;;;;;;;3.35;3.00;;;23.20;99.90;;;;;;4992525;28;20203;-86
2022/08/02 08:27:05;;;;;;;3.58;2.60;;;23.20;99.90;;;;;;4995478;28;20190;-87
2022/08/02 08:29:31;;;;;;;3.13;2.83;;;23.40;99.90;;;;;;4976652;28;20188;-87
2022/08/02 08:31:57;;;;;;;4.03;3.60;;;23.50;99.90;;;;;;4991349;28;20204;-87
2022/08/02 08:34:23;;;;;;;4.10;3.30;;;23.70;99.90;;;;;;4991958;28;20184;-87
2022/08/02 08:36:49;;;;;;;5.22;3.78;;;23.70;99.90;;;;;;4992101;28;20267;-87
2022/08/02 08:39:15;;;;;;;3.75;3.45;;;23.90;99.90;;;;;;5008516;28;20172;-87
2022/08/02 08:41:45;;;;;;;3.80;3.45;;;24.10;99.90;;;;;;4992169;28;20199;-87
2022/08/02 08:44:11;;;;;;;3.33;3.03;;;24.30;99.90;;;;;;4992156;28;20176;-87
2022/08/02 08:46:41;;;;;;;3.63;3.00;;;24.40;99.90;;;;;;4991976;28;20222;-87
2022/08/02 08:49:18;;;;;;;5.78;3.53;;;24.60;99.90;;;;;;5008294;28;20180;-86
2022/08/02 08:51:44;;;;;;;4.55;2.85;;;24.70;99.90;;;;;;5008537;28;20211;-87
2022/08/02 08:54:15;;;;;;;2.45;2.20;;;24.80;99.90;;;;;;4992552;28;20172;-87
2022/08/02 08:56:43;;;;;;;3.60;2.65;;;25.00;99.90;;;;;;5008025;28;20168;-87
2022/08/02 08:59:09;;;;;;;2.92;2.47;;;25.10;99.90;;;;;;4992375;28;20180;-87
2022/08/02 09:01:35;;;;;;;2.50;2.30;;;25.30;99.90;;;;;;4991901;28;20349;-87
2022/08/02 09:04:01;;;;;;;2.90;2.67;;;25.30;99.90;;;;;;4992991;28;20222;-87
2022/08/02 09:06:27;;;;;;;2.47;2.20;;;25.40;99.90;;;;;;4992464;28;20203;-87
2022/08/02 09:08:53;;;;;;;2.63;2.42;;;25.60;99.90;;;;;;4992058;28;20627;-87
2022/08/02 09:11:24;;;;;;;3.40;2.50;;;25.70;99.90;;;;;;4991899;28;20203;-87
2022/08/02 09:13:56;;;;;;;3.30;2.55;;;26.00;99.90;;;;;;4991799;28;20176;-86
2022/08/02 09:16:36;;;;;;;2.45;2.25;;;26.00;99.90;;;;;;4991898;28;20225;-87
2022/08/02 09:19:22;;;;;;;2.78;2.28;;;26.30;99.90;;;;;;4991868;28;20171;-87
2022/08/02 09:21:49;;;;;;;4.18;2.65;;;26.50;99.90;;;;;;4982226;28;20208;-87
2022/08/02 09:24:21;;;;;;;3.33;2.65;;;26.70;99.90;;;;;;4988525;28;20176;-87
2022/08/02 09:26:48;;;;;;;2.60;2.40;;;26.70;99.90;;;;;;4971957;28;20184;-87
2022/08/02 09:29:15;;;;;;;3.00;2.70;;;26.70;99.90;;;;;;4972160;28;20326;-87
2022/08/02 09:31:42;;;;;;;2.63;2.10;;;27.00;99.90;;;;;;4972414;28;20304;-87
2022/08/02 09:34:08;;;;;;;3.17;2.30;;;27.10;99.90;;;;;;4972106;28;20192;-87
2022/08/02 09:36:42;;;;;;;2.60;2.40;;;27.30;99.90;;;;;;4989106;28;20188;-87
2022/08/02 09:39:14;;;;;;;2.30;2.10;;;27.20;99.90;;;;;;4992430;28;20211;-87
2022/08/02 09:41:44;;;;;;;2.00;1.80;;;27.10;99.90;;;;;;4975804;28;20211;-87
2022/08/02 09:44:11;;;;;;;2.92;1.90;;;27.30;99.90;;;;;;4987468;28;20244;-81
2022/08/02 09:46:43;;;;;;;3.25;1.85;;;27.20;99.90;;;;;;4981642;28;20200;-80
2022/08/02 09:49:17;;;;;;;2.13;2.00;;;27.30;99.90;;;;;;4995431;28;20184;-87
2022/08/02 09:51:46;;;;;;;1.80;1.70;;;27.30;99.90;;;;;;4979653;28;20202;-87
2022/08/02 09:54:27;;;;;;;2.47;2.00;;;27.40;99.90;;;;;;4995797;28;20182;-87
2022/08/02 09:56:56;;;;;;;2.47;2.00;;;27.50;99.90;;;;;;4979978;28;20179;-87
2022/08/02 09:59:23;;;;;;;2.20;1.95;;;27.60;99.90;;;;;;4979503;28;20214;-87
2022/08/02 10:01:50;;;;;;;3.10;2.15;;;27.60;99.90;;;;;;4995216;28;20246;-88
2022/08/02 10:04:20;;;;;;;3.53;2.10;;;27.70;99.90;;;;;;4978226;28;20196;-87
2022/08/02 10:06:48;;;;;;;2.95;2.17;;;27.60;99.90;;;;;;4979550;28;20188;-87
2022/08/02 10:09:14;;;;;;;3.00;2.00;;;27.50;99.90;;;;;;4979321;28;20176;-87
2022/08/02 10:11:41;;;;;;;3.30;2.20;;;27.70;99.90;;;;;;4979019;28;20227;-87
2022/08/02 10:14:09;;;;;;;2.20;1.90;;;27.90;99.90;;;;;;4995620;28;20198;-87
2022/08/02 10:16:44;;;;;;;3.22;1.90;;;27.80;99.90;;;;;;4979276;28;20224;-87
2022/08/02 10:19:10;;;;;;;2.13;1.92;;;28.00;99.90;;;;;;4990014;28;20625;-88
2022/08/02 10:21:44;;;;;;;2.15;1.70;;;28.10;99.90;;;;;;5014580;28;20210;-87
2022/08/02 10:24:21;;;;;;;2.92;1.90;;;28.30;99.90;;;;;;5015315;28;20171;-87
2022/08/02 10:26:51;;;;;;;3.28;1.73;;;28.50;99.90;;;;;;5001297;28;20171;-87
2022/08/02 10:29:20;;;;;;;2.40;1.77;;;28.50;99.90;;;;;;5015134;28;20195;-87
2022/08/02 10:31:54;;;;;;;2.10;1.90;;;28.80;99.90;;;;;;4998924;28;20192;-88
2022/08/02 10:34:27;;;;;;;1.73;1.63;;;28.80;99.90;;;;;;5015032;28;20175;-88
2022/08/02 10:37:07;;;;;;;2.20;1.67;;;29.00;99.90;;;;;;5014795;28;20171;-87
2022/08/02 10:39:38;;;;;;;1.80;1.70;;;29.20;99.90;;;;;;5014434;28;20258;-88
2022/08/02 10:42:04;;;;;;;1.90;1.80;;;29.30;99.90;;;;;;5003596;28;20199;-87
2022/08/02 10:44:32;;;;;;;2.30;1.75;;;29.40;99.90;;;;;;5002946;28;20179;-88
2022/08/02 10:47:13;;;;;;;2.10;1.90;;;29.40;99.90;;;;;;4999549;28;20221;-88
2022/08/02 10:49:54;;;;;;;2.45;1.65;;;29.30;99.90;;;;;;4996058;28;20179;-87
2022/08/02 10:52:27;;;;;;;2.03;1.70;;;29.30;99.90;;;;;;5011173;28;20203;-87
2022/08/02 10:55:09;;;;;;;2.55;1.73;;;29.50;99.90;;;;;;4994467;28;20214;-88
2022/08/02 10:57:36;;;;;;;1.88;1.67;;;29.70;99.90;;;;;;4994685;28;20184;-87
2022/08/02 11:00:26;;;;;;;4.70;1.77;;;29.40;99.90;;;;;;4994523;28;20184;-88
2022/08/02 11:02:55;;;;;;;2.22;1.83;;;29.10;99.90;;;;;;4971419;28;20192;-87
2022/08/02 11:05:29;;;;;;;3.03;1.65;;;29.20;99.90;;;;;;4994921;28;20204;-88
2022/08/02 11:07:56;;;;;;;1.52;1.40;;;29.40;99.90;;;;;;4994755;28;20172;-87
2022/08/02 11:10:36;;;;;;;3.42;1.50;;;29.30;99.90;;;;;;4994249;28;20183;-87
2022/08/02 11:13:09;;;;;;;2.05;1.75;;;29.50;99.90;;;;;;4994142;28;20176;-88
2022/08/02 11:15:56;;;;;;;2.28;2.03;;;29.40;99.80;;;;;;4994432;28;20195;-88
2022/08/02 11:18:43;;;;;;;3.85;1.58;;;29.40;99.90;;;;;;4994689;28;20183;-87
2022/08/02 11:21:22;;;;;;;1.55;1.45;;;29.10;99.70;;;;;;4994929;28;20216;-87
2022/08/02 11:23:48;;;;;;;2.45;2.00;;;29.10;99.90;;;;;;4983016;28;20180;-88
2022/08/02 11:26:29;;;;;;;2.30;1.67;;;29.10;99.90;;;;;;4991097;28;20196;-87
2022/08/02 11:29:00;;;;;;;6.15;1.90;;;29.00;99.20;;;;;;4980139;28;20263;-87
2022/08/02 11:31:27;;;;;;;1.60;1.50;;;29.10;99.10;;;;;;5008787;28;20195;-88
2022/08/02 11:33:56;;;;;;;2.13;1.50;;;29.40;98.70;;;;;;5010049;28;20243;-87
2022/08/02 11:36:22;;;;;;;3.10;1.60;;;29.60;98.10;;;;;;5000571;28;20184;-87
2022/08/02 11:38:48;;;;;;;1.88;1.27;;;29.40;97.20;;;;;;4980170;28;20211;-87
2022/08/02 11:41:19;;;;;;;1.60;1.50;;;29.60;97.80;;;;;;4987084;28;20234;-87
2022/08/02 11:43:49;;;;;;;1.55;1.45;;;30.00;97.70;;;;;;5013145;28;20183;-87
2022/08/02 11:46:23;;;;;;;1.88;1.40;;;30.10;96.90;;;;;;5007726;28;20195;-87
2022/08/02 11:48:49;;;;;;;1.50;1.40;;;30.30;95.50;;;;;;5013289;28;20171;-87
2022/08/02 11:51:24;;;;;;;2.15;1.40;;;30.50;96.50;;;;;;4997151;28;20207;-87
2022/08/02 11:53:57;;;;;;;1.70;1.60;;;30.70;95.40;;;;;;5029413;28;20175;-87
2022/08/02 11:56:31;;;;;;;1.40;1.30;;;30.90;95.70;;;;;;5013158;28;20179;-87
2022/08/02 11:59:10;;;;;;;3.17;1.63;;;31.10;94.60;;;;;;5012933;28;20175;-88
2022/08/02 12:02:10;;;;;;;1.67;1.20;;;31.20;93.60;;;;;;5011786;28;20214;-87
2022/08/02 12:04:38;;;;;;;1.77;1.20;;;31.00;94.40;;;;;;5012811;28;20202;-87
2022/08/02 12:07:05;;;;;;;1.33;1.23;;;31.00;93.10;;;;;;5012681;28;20190;-87
2022/08/02 12:09:32;;;;;;;1.27;1.13;;;31.20;93.00;;;;;;5012782;28;20175;-87
2022/08/02 12:11:59;;;;;;;1.48;1.20;;;31.40;93.60;;;;;;5012234;28;20195;-87
2022/08/02 12:14:27;;;;;;;1.38;1.27;;;31.60;92.40;;;;;;5005729;28;20208;-87
2022/08/02 12:19:39;;;;;;;2.35;1.50;;;31.30;92.30;;;;;;4991212;28;20180;-87
2022/08/02 12:22:18;;;;;;;1.88;1.25;;;31.30;92.90;;;;;;4995978;28;20224;-87
2022/08/02 12:24:47;;;;;;;1.40;1.30;;;31.50;92.60;;;;;;5007750;28;20184;-87
2022/08/02 12:27:33;;;;;;;1.42;1.23;;;31.60;92.20;;;;;;4994284;28;20180;-87
2022/08/02 12:30:08;;;;;;;2.13;1.52;;;31.70;92.40;;;;;;4992756;28;20172;-87
2022/08/02 12:32:35;;;;;;;1.73;1.40;;;31.90;92.80;;;;;;4992754;28;20168;-87
2022/08/02 12:35:02;;;;;;;2.95;1.60;;;32.00;92.60;;;;;;4992396;28;20188;-87
2022/08/02 12:37:28;;;;;;;1.42;1.30;;;32.20;92.90;;;;;;4992552;28;20371;-87
2022/08/02 12:39:54;;;;;;;1.98;1.40;;;32.20;92.80;;;;;;4992331;28;20247;-87
2022/08/02 12:42:20;;;;;;;1.73;1.48;;;32.40;92.20;;;;;;4992397;28;20265;-87
2022/08/02 12:44:53;;;;;;;2.40;1.58;;;32.60;91.60;;;;;;4992115;28;20515;-88
2022/08/02 12:47:20;;;;;;;1.70;1.30;;;32.60;91.20;;;;;;4992622;28;20177;-87
2022/08/02 12:50:25;;;;;;;3.00;1.40;;;32.70;91.80;;;;;;5008691;28;20642;-88
2022/08/02 12:53:15;;;;;;;1.17;1.17;;;32.60;90.90;;;;;;4974337;28;20647;-87
2022/08/02 12:55:54;;;;;;;1.95;1.52;;;32.30;91.50;;;;;;4957543;28;20184;-87
2022/08/02 12:58:21;;;;;;;1.63;1.52;;;32.50;91.80;;;;;;4973263;28;20200;-88
2022/08/02 13:00:55;;;;;;;2.22;1.50;;;32.70;91.40;;;;;;4973123;28;20246;-88
2022/08/02 13:03:22;;;;;;;2.38;1.70;;;32.60;90.90;;;;;;4989740;28;20194;-88
2022/08/02 13:05:49;;;;;;;1.70;1.50;;;32.20;90.70;;;;;;4992313;28;20208;-84
2022/08/02 13:08:15;;;;;;;1.75;1.50;;;32.00;91.70;;;;;;4977045;28;20190;-88